Ketchikan, AK

8:19 PM AKST on December 10, 2016 (GMT -0900)
Ketchikan International | | Change Station

Elev 95 ft 55.36 °N, 131.71 °W | Updated 26 minutes ago

Overcast
Overcast
27 °F
Feels Like 27 °F
N
0
Wind Variable Wind from North

Today
High -- | Low -- °F
--% Chance of Precip.
Yesterday
High -- | Low -- °F
Precip. -- in
Pressure 29.86 in
Visibility 10.0 miles
Clouds Overcast 6000 ft
Dew Point 16 °F
Humidity 63%
Rainfall 0.00 in
Snow Depth Not available.
8:03 AM 3:16 PM
Waxing Gibbous, 89% visible
METAR PAKT 110453Z 00000KT 10SM OVC060 M03/M09 A2986 RMK AO2 SLP112 T10281089 $
Pressure 29.86 in
Visibility 10.0 miles
Clouds Overcast 6000 ft
Dew Point 16 °F
Humidity 63%
Rainfall 0.00 in
Snow Depth Not available.
8:03 AM 3:16 PM
Waxing Gibbous, 89% visible
METAR PAKT 110453Z 00000KT 10SM OVC060 M03/M09 A2986 RMK AO2 SLP112 T10281089 $

10-Day Weather Forecast

Almanac

Astronomy

Dec. 10, 2016 Rise Set
Actual Time
Civil Twilight
Nautical Twilight
Astronomical Twilight
Moon
Length of Visible Light
Length of Day
Tomorrow will be .
, % of the Moon is Illuminated

Today's Extremes

State Highs State Lows

Community

WunderPhotos

Upload Photos

1,956,705 photos uploaded!

WunderBlog® & News

Nearby

Air Quality

  Air Quality AQ Index Pollutant
Not available.

Snow Depth

Station Depth Elevation

Earthquake Activity

City Distance Mag. Time & Date
Minimum magnitude displayed is 2.5.

Coastal Water Temperatures

Place Temperature

Stations

Nearby Weather Stations

Station Location Temp. Windchill Dew Point Humidity Wind Precip. Elev Updated Type
                   

Watches & Warnings

There are currently no watches in effect.